Time;durP1;ratioP1;P1;durP2;ratioP2;P2;SDS_P1;SDS_P2;PMS_P1;PMS_P2;Temp;Humidity;BMP_temperature;BMP_pressure;BME280_temperature;BME280_humidity;BME280_pressure;Samples;Min_cycle;Max_cycle;Signal;HPM_P1;HPM_P2
2022/06/15 00:01:42;;;;;;;8.85;2.72;;;;;;;13.90;62.29;145671.37;1630760;88;21052;-59
2022/06/15 00:04:09;;;;;;;5.70;2.27;;;;;;;13.89;62.31;145668.83;1661743;86;21489;-59
2022/06/15 00:06:40;;;;;;;5.87;2.42;;;;;;;13.87;62.44;145665.09;1663062;86;21501;-59
2022/06/15 00:09:08;;;;;;;6.53;2.80;;;;;;;13.86;62.51;145661.30;1653418;85;21493;-59
2022/06/15 00:11:41;;;;;;;5.83;2.72;;;;;;;13.85;62.64;145658.80;1664291;85;21055;-59
2022/06/15 00:14:18;;;;;;;6.95;2.70;;;;;;;13.84;62.77;145656.25;1638407;86;21056;-59
2022/06/15 00:16:45;;;;;;;4.20;2.27;;;;;;;13.84;62.83;145657.56;1653135;87;21087;-58
2022/06/15 00:19:14;;;;;;;4.85;2.45;;;;;;;13.82;62.96;145651.27;1663065;86;21035;-58
2022/06/15 00:21:41;;;;;;;5.78;2.70;;;;;;;13.79;63.03;145643.69;1653151;87;21040;-58
2022/06/15 00:24:09;;;;;;;8.98;3.00;;;;;;;13.75;63.19;145634.91;1663020;86;21058;-57
2022/06/15 00:26:38;;;;;;;6.78;2.92;;;;;;;13.72;63.37;145626.12;1653218;85;21040;-58
2022/06/15 00:29:06;;;;;;;5.97;2.47;;;;;;;13.68;63.45;145618.53;1663184;85;21031;-59
2022/06/15 00:31:33;;;;;;;4.65;2.25;;;;;;;13.67;63.55;145616.03;1653366;87;21043;-58
2022/06/15 00:34:00;;;;;;;5.67;2.47;;;;;;;13.64;63.71;145608.50;1662989;86;21092;-58
2022/06/15 00:36:29;;;;;;;7.97;2.47;;;;;;;13.59;63.91;145595.94;1654027;85;21055;-58
2022/06/15 00:38:59;;;;;;;5.42;2.20;;;;;;;13.53;64.10;145580.81;1636390;88;21098;-58
2022/06/15 00:41:36;;;;;;;7.50;2.50;;;;;;;13.49;64.32;145570.80;1626844;88;21110;-58
2022/06/15 00:44:21;;;;;;;5.95;2.17;;;;;;;13.47;64.54;145565.75;1627090;87;21032;-59
2022/06/15 00:47:02;;;;;;;8.35;2.60;;;;;;;13.43;64.79;145556.97;1636395;86;21168;-58
2022/06/15 00:49:35;;;;;;;3.95;2.17;;;;;;;13.42;64.98;145553.19;1636333;87;21094;-59
2022/06/15 00:52:05;;;;;;;;;;;;;;;13.36;65.35;145538.12;1624621;88;21043;-58
2022/06/15 00:54:33;;;;;;;5.35;2.40;;;;;;;13.27;65.81;145515.47;1626323;88;20400;-60
2022/06/15 00:57:02;;;;;;;5.75;2.30;;;;;;;13.22;66.26;145505.36;1650883;87;21045;-58
2022/06/15 00:59:34;;;;;;;7.58;2.47;;;;;;;13.19;66.64;145497.83;1643194;86;21526;-58
2022/06/15 01:02:01;;;;;;;5.12;2.45;;;;;;;13.14;66.95;145485.25;1647996;87;21041;-58
2022/06/15 01:04:40;;;;;;;5.92;2.22;;;;;;;13.08;67.78;145470.19;1647874;86;21139;-58
2022/06/15 01:07:25;;;;;;;4.47;2.50;;;;;;;12.99;68.26;145447.56;1643053;86;21544;-58
2022/06/15 01:10:25;;;;;;;6.12;2.50;;;;;;;12.91;68.90;145428.70;1643569;86;21553;-58
2022/06/15 01:13:20;;;;;;;5.75;2.35;;;;;;;12.84;69.41;145411.11;1632201;87;21063;-59
2022/06/15 01:16:00;;;;;;;5.85;2.40;;;;;;;12.80;69.73;145402.33;1663158;86;21039;-59
2022/06/15 01:18:34;;;;;;;9.33;2.63;;;;;;;12.77;70.11;145394.80;1630611;86;21067;-58
2022/06/15 01:21:27;;;;;;;5.65;2.58;;;;;;;12.71;70.33;145379.69;1662412;86;21537;-58
2022/06/15 01:24:17;;;;;;;6.25;2.27;;;;;;;12.67;70.77;145369.67;1662622;85;21099;-58
2022/06/15 01:27:10;;;;;;;8.13;2.72;;;;;;;12.62;71.23;145355.81;1662416;85;21039;-58
2022/06/15 01:30:08;;;;;;;9.88;2.50;;;;;;;12.59;71.43;145349.53;1653202;86;21036;-58
2022/06/15 01:33:00;;;;;;;6.28;2.65;;;;;;;12.57;71.84;145345.80;1660882;85;21030;-58
2022/06/15 01:35:45;;;;;;;4.65;2.30;;;;;;;12.55;72.14;145339.52;1656975;86;21057;-58
2022/06/15 01:38:24;;;;;;;5.12;2.52;;;;;;;12.51;72.38;145330.69;1659905;86;21048;-59
2022/06/15 01:41:16;;;;;;;5.25;2.22;;;;;;;12.46;72.63;145316.89;1655698;86;21554;-58
2022/06/15 01:43:56;;;;;;;6.75;2.50;;;;;;;12.42;73.05;145306.88;1645309;85;21081;-59
2022/06/15 01:46:25;;;;;;;8.53;2.40;;;;;;;12.34;73.38;145289.28;1632377;87;21061;-58
2022/06/15 01:48:55;;;;;;;7.50;2.72;;;;;;;12.30;73.45;145279.20;1633073;88;21534;-58
2022/06/15 01:51:28;;;;;;;8.90;3.67;;;;;;;12.30;73.64;145277.97;1633236;87;21085;-58
2022/06/15 01:54:03;;;;;;;9.08;3.58;;;;;;;12.27;73.76;145270.44;1639595;85;21047;-58
2022/06/15 01:56:41;;;;;;;8.00;4.05;;;;;;;12.26;73.79;145269.19;1659186;86;21105;-58
2022/06/15 01:59:25;;;;;;;9.20;4.50;;;;;;;12.26;73.85;145267.89;1657898;86;21095;-58
2022/06/15 02:02:13;;;;;;;14.10;3.98;;;;;;;12.24;74.03;145264.16;1652987;85;21105;-58
2022/06/15 02:05:08;;;;;;;12.10;3.92;;;;;;;12.26;74.02;145269.19;1652849;87;21040;-58
2022/06/15 02:07:54;;;;;;;10.20;4.62;;;;;;;12.27;74.12;145270.44;1663132;85;21083;-58
2022/06/15 02:10:54;;;;;;;7.42;3.08;;;;;;;12.26;74.22;145267.89;1663154;85;21529;-58
2022/06/15 02:13:48;;;;;;;6.62;3.00;;;;;;;12.24;74.43;145262.91;1635160;86;21061;-58
2022/06/15 02:16:25;;;;;;;9.10;2.85;;;;;;;12.22;74.50;145257.87;1649114;87;21041;-60
2022/06/15 02:18:55;;;;;;;7.50;2.83;;;;;;;12.19;74.55;145251.59;1649164;87;21077;-59
2022/06/15 02:21:26;;;;;;;6.30;2.42;;;;;;;12.19;74.73;145251.59;1649063;86;21080;-59
2022/06/15 02:23:58;;;;;;;6.40;2.80;;;;;;;12.18;74.98;145247.81;1649520;86;21039;-59
2022/06/15 02:26:33;;;;;;;5.75;2.72;;;;;;;12.16;75.17;145245.31;1649528;86;21041;-59
2022/06/15 02:29:11;;;;;;;7.97;2.90;;;;;;;12.19;75.39;145251.59;1649381;87;20997;-59
2022/06/15 02:31:42;;;;;;;7.60;2.77;;;;;;;12.21;75.35;145256.58;1650386;86;21064;-59
2022/06/15 02:34:11;;;;;;;7.22;3.02;;;;;;;12.22;75.34;145259.13;1652562;87;21554;-59
2022/06/15 02:36:40;;;;;;;5.97;2.30;;;;;;;12.26;75.50;145267.89;1651491;87;21087;-59
2022/06/15 02:39:09;;;;;;;5.78;2.70;;;;;;;12.27;75.58;145271.69;1647183;86;21097;-59
2022/06/15 02:41:36;;;;;;;8.75;3.47;;;;;;;12.29;75.64;145275.47;1647395;87;21502;-59
2022/06/15 02:44:10;;;;;;;5.20;2.20;;;;;;;12.28;75.83;145274.17;1647189;86;21082;-59
2022/06/15 02:46:42;;;;;;;11.30;2.80;;;;;;;12.29;75.86;145275.47;1645733;87;21047;-59
2022/06/15 02:49:10;;;;;;;6.42;2.60;;;;;;;12.31;76.00;145281.75;1663681;85;21541;-58
2022/06/15 02:51:48;;;;;;;5.78;2.55;;;;;;;12.32;76.10;145283.00;1651463;87;21052;-59
2022/06/15 02:54:33;;;;;;;6.70;2.70;;;;;;;12.35;76.18;145291.77;1663557;85;21055;-59
2022/06/15 02:57:03;;;;;;;8.08;2.70;;;;;;;12.41;76.25;145305.58;1637172;87;21046;-58
2022/06/15 02:59:31;;;;;;;5.97;2.45;;;;;;;12.43;76.17;145310.61;1627787;87;21051;-58
2022/06/15 03:01:59;;;;;;;7.70;2.87;;;;;;;12.43;76.21;145310.61;1636520;86;21609;-58
2022/06/15 03:04:26;;;;;;;8.13;2.75;;;;;;;12.48;76.05;145323.17;1636357;86;21024;-58
2022/06/15 03:06:54;;;;;;;6.30;2.80;;;;;;;12.49;76.06;145324.41;1658916;86;21051;-58
2022/06/15 03:09:22;;;;;;;8.03;3.02;;;;;;;12.50;76.08;145328.20;1651251;87;21036;-58
2022/06/15 03:11:51;;;;;;;5.12;2.47;;;;;;;12.53;76.20;145334.48;1663274;85;21553;-58
2022/06/15 03:14:27;;;;;;;5.83;2.30;;;;;;;12.51;76.15;145329.45;1655966;86;21091;-58
2022/06/15 03:16:54;;;;;;;7.72;2.58;;;;;;;12.51;76.39;145329.45;1650738;87;21071;-58
2022/06/15 03:19:24;;;;;;;6.53;2.77;;;;;;;12.51;76.45;145330.69;1663028;85;21051;-58
2022/06/15 03:21:54;;;;;;;7.08;2.72;;;;;;;12.53;76.48;145335.72;1663699;85;21032;-60
2022/06/15 03:24:21;;;;;;;4.45;2.25;;;;;;;12.54;76.49;145336.97;1663217;85;21012;-58
2022/06/15 03:26:49;;;;;;;6.92;2.62;;;;;;;12.55;76.45;145340.77;1662596;86;21015;-59
2022/06/15 03:29:17;;;;;;;6.67;2.80;;;;;;;12.56;76.49;145343.25;1663379;85;21043;-60
2022/06/15 03:31:44;;;;;;;7.40;2.80;;;;;;;12.58;76.43;145347.05;1648007;86;21389;-59
2022/06/15 03:34:11;;;;;;;7.37;2.52;;;;;;;12.61;76.25;145354.56;1673244;85;21033;-59
2022/06/15 03:36:39;;;;;;;5.42;2.30;;;;;;;12.69;76.27;145374.66;1670806;85;21037;-59
2022/06/15 03:39:06;;;;;;;5.55;2.52;;;;;;;12.74;76.02;145385.98;1673089;85;21052;-58
2022/06/15 03:41:38;;;;;;;7.75;2.92;;;;;;;12.76;75.94;145392.27;1673651;85;21123;-58
2022/06/15 03:44:06;;;;;;;6.10;2.60;;;;;;;12.86;75.80;145414.89;1673506;85;21077;-59
2022/06/15 03:46:34;;;;;;;7.28;2.55;;;;;;;12.90;75.46;145426.22;1669088;85;21046;-59
2022/06/15 03:49:06;;;;;;;6.35;2.60;;;;;;;12.97;75.30;145443.77;1662537;85;21039;-59
2022/06/15 03:51:34;;;;;;;7.62;2.65;;;;;;;13.08;75.02;145470.19;1667640;86;21084;-58
2022/06/15 03:54:03;;;;;;;5.87;2.90;;;;;;;13.18;74.88;145495.33;1650793;86;21076;-59
2022/06/15 03:56:48;;;;;;;9.78;3.10;;;;;;;13.29;74.49;145520.52;1647581;85;21092;-59
2022/06/15 03:59:17;;;;;;;6.45;2.92;;;;;;;13.33;74.13;145530.53;1634283;86;21104;-59
2022/06/15 04:01:47;;;;;;;5.72;2.83;;;;;;;13.34;73.99;145533.08;1657661;84;21040;-59
2022/06/15 04:04:15;;;;;;;10.58;3.08;;;;;;;13.31;74.08;145526.80;1627801;86;21533;-59
2022/06/15 04:06:44;;;;;;;7.37;2.47;;;;;;;13.29;74.06;145520.52;1633999;87;21045;-60
2022/06/15 04:09:12;;;;;;;7.65;2.83;;;;;;;13.29;74.39;145521.75;1673075;86;21021;-59
2022/06/15 04:11:59;;;;;;;7.28;2.60;;;;;;;13.35;74.35;145536.83;1673343;85;21049;-59
2022/06/15 04:14:29;;;;;;;7.00;2.55;;;;;;;13.45;74.43;145560.72;1637031;85;21081;-59
2022/06/15 04:17:11;;;;;;;6.62;2.75;;;;;;;13.50;73.96;145573.28;1634534;86;21080;-59
2022/06/15 04:20:31;;;;;;;5.85;2.77;;;;;;;13.55;74.03;145584.61;1645030;86;21177;-59
2022/06/15 04:22:19;;;;;;;6.50;3.05;;;;;;;13.71;73.49;145623.58;1649311;87;21071;-59
2022/06/15 04:24:47;;;;;;;5.55;2.50;;;;;;;13.78;73.10;145641.19;1666233;86;21076;-59
2022/06/15 04:27:15;;;;;;;7.50;2.77;;;;;;;13.81;72.80;145648.72;1651845;86;21056;-59
2022/06/15 04:29:42;;;;;;;6.75;2.60;;;;;;;13.79;72.58;145643.69;1666603;84;21111;-59
2022/06/15 04:32:09;;;;;;;5.22;2.40;;;;;;;13.84;72.56;145657.56;1647494;86;21599;-60
2022/06/15 04:34:37;;;;;;;6.62;2.52;;;;;;;13.94;72.51;145681.41;1650165;86;21560;-60
2022/06/15 04:37:06;;;;;;;7.28;2.65;;;;;;;14.07;72.31;145714.14;1654946;86;21032;-59
2022/06/15 04:39:34;;;;;;;5.67;2.45;;;;;;;14.17;71.95;145738.05;1586838;89;21103;-60
2022/06/15 04:42:03;;;;;;;8.45;2.62;;;;;;;14.22;71.43;145749.33;1599189;89;21122;-59
2022/06/15 04:44:30;;;;;;;8.13;2.67;;;;;;;14.29;71.35;145766.94;1595466;88;21060;-59
2022/06/15 04:46:58;;;;;;;6.15;2.58;;;;;;;14.37;70.87;145787.06;1603019;86;21059;-59
2022/06/15 04:49:28;;;;;;;8.20;2.40;;;;;;;14.39;70.76;145792.09;1617330;86;21080;-59
2022/06/15 04:51:55;;;;;;;4.22;2.00;;;;;;;14.40;70.38;145793.34;1639813;86;21138;-58
2022/06/15 04:54:23;;;;;;;4.33;2.42;;;;;;;14.36;70.54;145783.31;1644473;86;21040;-58
2022/06/15 04:56:53;;;;;;;6.08;2.22;;;;;;;14.41;70.46;145797.14;1644484;86;21107;-58
2022/06/15 04:59:19;;;;;;;8.63;2.98;;;;;;;14.49;70.41;145817.27;1637045;85;21121;-58
2022/06/15 05:01:46;;;;;;;5.60;2.70;;;;;;;14.61;70.25;145845.02;1624169;87;21081;-59
2022/06/15 05:04:15;;;;;;;5.37;2.08;;;;;;;14.77;69.93;145885.27;1624355;87;21203;-59
2022/06/15 05:06:42;;;;;;;5.50;2.10;;;;;;;14.92;69.69;145923.02;1625551;87;21034;-60
2022/06/15 05:09:13;;;;;;;8.00;2.45;;;;;;;15.04;69.21;145951.98;1629061;86;21074;-60
2022/06/15 05:11:44;;;;;;;5.25;2.15;;;;;;;15.12;68.87;145972.11;1654212;85;21063;-59
2022/06/15 05:14:12;;;;;;;8.60;2.42;;;;;;;15.20;67.90;145992.23;1659352;85;21026;-60
2022/06/15 05:16:41;;;;;;;7.10;2.27;;;;;;;15.23;67.40;145998.53;1656936;85;21032;-59
2022/06/15 05:19:10;;;;;;;7.40;2.65;;;;;;;15.33;67.16;146022.47;1631047;86;21528;-60
2022/06/15 05:21:43;;;;;;;5.87;2.40;;;;;;;15.41;66.45;146042.59;1623816;87;21074;-57
2022/06/15 05:24:11;;;;;;;4.08;1.90;;;;;;;15.51;65.99;146066.52;1646430;85;21020;-57
2022/06/15 05:26:55;;;;;;;6.10;2.30;;;;;;;15.54;65.39;146075.31;1658286;85;21571;-57
2022/06/15 05:29:22;;;;;;;3.90;2.05;;;;;;;15.52;65.40;146070.31;1647386;86;21011;-57
2022/06/15 05:31:52;;;;;;;7.47;2.20;;;;;;;15.59;65.27;146086.66;1656602;84;21184;-58
2022/06/15 05:34:19;;;;;;;6.22;2.17;;;;;;;15.78;65.17;146134.58;1646379;86;21527;-56
2022/06/15 05:36:47;;;;;;;5.12;2.00;;;;;;;16.03;64.57;146195.05;1662520;84;21052;-57
2022/06/15 05:39:14;;;;;;;5.28;2.02;;;;;;;16.18;64.07;146232.83;1654343;84;21494;-56
2022/06/15 05:41:44;;;;;;;6.20;2.15;;;;;;;16.41;63.49;146288.22;1672685;84;21030;-57
2022/06/15 05:46:43;;;;;;;5.62;2.10;;;;;;;16.61;61.75;146338.66;1653397;84;21405;-56
2022/06/15 05:49:29;;;;;;;6.87;2.00;;;;;;;16.68;61.51;146356.27;1646508;84;21044;-56
2022/06/15 05:51:58;;;;;;;5.20;1.95;;;;;;;16.79;61.46;146381.53;1664867;84;21595;-56
2022/06/15 05:54:26;;;;;;;4.78;2.08;;;;;;;18.73;56.92;146860.84;1665788;84;21072;-56
2022/06/15 05:56:53;;;;;;;5.97;2.10;;;;;;;18.73;56.92;146860.84;1678962;84;21013;-56
2022/06/15 05:59:20;;;;;;;8.33;2.12;;;;;;;19.66;52.74;147090.64;1676835;84;21542;-57
2022/06/15 06:01:48;;;;;;;4.53;1.70;;;;;;;20.73;50.58;147354.78;1666196;84;20992;-58
2022/06/15 06:04:17;;;;;;;9.05;2.15;;;;;;;22.14;47.56;147702.59;1671478;84;20986;-57
2022/06/15 06:06:45;;;;;;;5.42;1.98;;;;;;;23.47;44.59;148030.50;1674457;84;21041;-57
2022/06/15 06:09:12;;;;;;;8.40;1.80;;;;;;;25.22;40.50;148465.22;1677334;84;21021;-57
2022/06/15 06:11:41;;;;;;;5.33;1.60;;;;;;;26.29;37.82;148729.06;1679676;84;21061;-57
2022/06/15 06:14:08;;;;;;;4.62;1.85;;;;;;;26.72;36.22;148835.69;1668602;84;21550;-57
2022/06/15 06:16:36;;;;;;;4.70;1.40;;;;;;;27.21;35.48;148957.55;1648413;86;21124;-57
2022/06/15 06:19:04;;;;;;;5.42;2.08;;;;;;;27.89;33.93;149127.73;1643573;86;21069;-56
2022/06/15 06:21:32;;;;;;;5.60;1.40;;;;;;;28.66;33.55;149318.30;1677742;84;21096;-57
2022/06/15 06:23:58;;;;;;;5.37;1.60;;;;;;;29.65;31.12;149563.69;1646967;86;21013;-56
2022/06/15 06:26:31;;;;;;;4.75;2.05;;;;;;;30.00;29.85;149651.41;1648288;86;21084;-57
2022/06/15 06:29:00;;;;;;;3.58;1.50;;;;;;;29.21;30.59;149455.59;1666304;84;21574;-56
2022/06/15 06:31:28;;;;;;;3.52;1.30;;;;;;;28.53;31.64;149285.28;1683678;84;21005;-56
2022/06/15 06:33:55;;;;;;;6.55;1.80;;;;;;;28.74;30.74;149337.36;1645174;86;21551;-57
2022/06/15 06:36:41;;;;;;;5.28;1.50;;;;;;;28.66;31.16;149317.03;1644629;87;21092;-57
2022/06/15 06:39:15;;;;;;;5.37;1.82;;;;;;;28.78;31.16;149348.80;1645907;85;21150;-57
2022/06/15 06:41:44;;;;;;;7.58;1.57;;;;;;;29.54;30.12;149536.95;1632758;86;21061;-56
2022/06/15 06:44:13;;;;;;;4.70;1.57;;;;;;;30.63;28.31;149807.91;1676603;85;21033;-57
2022/06/15 06:46:44;;;;;;;4.30;1.50;;;;;;;30.96;27.82;149888.06;1659392;85;21565;-58
2022/06/15 06:49:12;;;;;;;3.98;1.40;;;;;;;30.21;27.34;149703.53;1668400;85;21009;-57
2022/06/15 06:51:41;;;;;;;5.95;1.20;;;;;;;29.37;28.35;149493.72;1664270;85;21620;-58
2022/06/15 06:54:11;;;;;;;4.70;1.72;;;;;;;29.14;28.41;149437.80;1644794;85;21091;-57
2022/06/15 06:56:38;;;;;;;4.28;1.50;;;;;;;29.21;28.51;149454.34;1654835;85;21080;-57
2022/06/15 06:59:08;;;;;;;5.60;1.70;;;;;;;28.77;28.83;149344.97;1667449;85;21037;-57
2022/06/15 07:01:36;;;;;;;5.15;1.55;;;;;;;28.21;29.56;149206.45;1661489;85;21001;-57
2022/06/15 07:04:04;;;;;;;5.50;1.22;;;;;;;28.12;30.01;149183.63;1660377;85;20997;-57
2022/06/15 07:06:32;;;;;;;4.45;1.05;;;;;;;28.09;30.33;149176.00;1669684;85;21036;-57
2022/06/15 07:09:01;;;;;;;5.10;1.57;;;;;;;27.98;30.82;149148.03;1660582;85;21033;-56
2022/06/15 07:11:29;;;;;;;4.10;1.30;;;;;;;28.39;30.51;149249.64;1664079;85;21355;-57
2022/06/15 07:13:56;;;;;;;4.65;1.25;;;;;;;28.73;30.08;149336.09;1658666;85;21044;-57
2022/06/15 07:16:23;;;;;;;5.42;1.20;;;;;;;29.02;29.78;149407.25;1638489;85;21076;-57
2022/06/15 07:18:51;;;;;;;3.98;1.10;;;;;;;29.09;28.97;149425.09;1657793;85;21553;-56
2022/06/15 07:21:24;;;;;;;4.83;1.10;;;;;;;28.79;28.84;149351.33;1672451;85;21538;-56
2022/06/15 07:23:55;;;;;;;4.05;0.88;;;;;;;28.78;28.76;149348.80;1656792;85;21033;-57
2022/06/15 07:26:26;;;;;;;5.40;1.00;;;;;;;29.13;28.20;149435.28;1659229;85;21048;-56
2022/06/15 07:28:54;;;;;;;3.75;0.90;;;;;;;29.12;28.20;149431.44;1659641;85;21140;-56
2022/06/15 07:31:26;;;;;;;3.08;1.02;;;;;;;29.10;28.62;149426.34;1660679;85;21033;-56
2022/06/15 07:33:54;;;;;;;3.95;0.90;;;;;;;28.21;29.29;149206.45;1672015;84;21529;-56
2022/06/15 07:36:24;;;;;;;3.45;0.98;;;;;;;27.67;30.22;149071.81;1656001;85;21021;-57
2022/06/15 07:38:53;;;;;;;3.27;0.90;;;;;;;27.30;30.87;148980.42;1676358;84;21573;-56
2022/06/15 07:41:23;;;;;;;3.67;1.00;;;;;;;27.66;30.62;149069.28;1672136;84;21009;-57
2022/06/15 07:43:50;;;;;;;2.08;0.90;;;;;;;28.17;29.33;149196.31;1673470;84;21076;-57
2022/06/15 07:46:17;;;;;;;3.52;0.80;;;;;;;28.08;29.31;149174.69;1681542;84;21051;-58
2022/06/15 07:51:45;;;;;;;5.40;1.20;;;;;;;29.88;27.46;149620.89;1672485;84;21044;-58
2022/06/15 07:54:15;;;;;;;6.42;1.37;;;;;;;31.02;25.68;149903.36;1683305;84;21138;-57
2022/06/15 07:56:44;;;;;;;3.87;1.60;;;;;;;30.73;25.28;149832.03;1652349;86;21517;-57
2022/06/15 07:59:12;;;;;;;3.15;1.12;;;;;;;30.14;25.66;149684.47;1653775;85;21024;-58
2022/06/15 08:01:41;;;;;;;2.02;0.90;;;;;;;29.70;26.50;149576.39;1651736;85;21048;-57
2022/06/15 08:04:07;;;;;;;4.12;0.70;;;;;;;28.62;27.80;149308.13;1651175;86;21081;-57
2022/06/15 08:06:37;;;;;;;5.10;1.05;;;;;;;28.33;28.74;149236.94;1653456;86;21048;-57
2022/06/15 08:09:09;;;;;;;4.20;1.45;;;;;;;28.68;28.44;149322.13;1660009;84;20998;-57
2022/06/15 08:11:39;;;;;;;4.20;1.12;;;;;;;29.06;27.76;149417.47;1682161;84;21044;-57
2022/06/15 08:14:06;;;;;;;3.23;1.00;;;;;;;29.33;26.89;149483.53;1672805;84;21042;-56
2022/06/15 08:16:34;;;;;;;1.98;0.88;;;;;;;29.33;26.58;149483.53;1684890;84;21037;-58
2022/06/15 08:19:04;;;;;;;5.03;1.00;;;;;;;29.34;26.58;149487.38;1655203;85;21076;-56
2022/06/15 08:21:37;;;;;;;4.62;1.15;;;;;;;29.43;26.41;149510.22;1649606;86;21535;-57
2022/06/15 08:24:05;;;;;;;2.10;0.70;;;;;;;29.25;26.67;149463.22;1654199;85;21515;-57
2022/06/15 08:26:36;;;;;;;4.55;0.95;;;;;;;28.56;27.16;149292.89;1655056;85;21545;-57
2022/06/15 08:29:08;;;;;;;2.40;0.90;;;;;;;28.23;27.58;149211.53;1648527;85;21128;-57
2022/06/15 08:31:36;;;;;;;2.83;0.78;;;;;;;28.04;28.20;149163.31;1655433;85;21530;-57
2022/06/15 08:34:06;;;;;;;4.00;1.15;;;;;;;27.12;29.33;148934.64;1640815;85;21069;-57
2022/06/15 08:36:35;;;;;;;4.90;1.20;;;;;;;26.03;30.68;148665.63;1647759;86;21036;-57
2022/06/15 08:39:04;;;;;;;3.42;0.85;;;;;;;25.29;31.41;148482.97;1676955;85;21076;-58
2022/06/15 08:41:51;;;;;;;2.47;0.85;;;;;;;25.33;31.45;148493.09;1655743;85;21067;-58
2022/06/15 08:44:52;;;;;;;2.45;0.70;;;;;;;26.18;30.59;148703.69;1661496;84;21103;-57
2022/06/15 08:47:37;;;;;;;2.00;0.80;;;;;;;26.58;30.00;148802.66;1660504;85;21581;-57
2022/06/15 08:50:12;;;;;;;3.52;0.98;;;;;;;25.96;30.56;148649.12;1629535;87;21677;-57
2022/06/15 08:52:47;;;;;;;1.72;0.75;;;;;;;26.10;30.63;148683.34;1660065;85;21222;-57
2022/06/15 08:55:43;;;;;;;1.90;0.98;;;;;;;26.81;30.05;148858.50;1640483;85;21076;-57
2022/06/15 08:58:46;;;;;;;3.00;0.95;;;;;;;26.83;30.03;148863.58;1667048;85;21022;-57
2022/06/15 09:01:48;;;;;;;1.90;0.85;;;;;;;26.74;30.20;148842.03;1670167;85;21073;-57
2022/06/15 09:04:54;;;;;;;2.20;0.60;;;;;;;27.09;29.48;148927.03;1672931;85;21060;-57
2022/06/15 09:07:42;;;;;;;1.45;0.82;;;;;;;26.79;29.70;148854.72;1660421;85;21557;-57
2022/06/15 09:10:18;;;;;;;3.77;1.60;;;;;;;24.96;31.54;148399.22;1673548;85;21116;-57
2022/06/15 09:13:27;;;;;;;3.02;1.30;;;;;;;24.44;32.65;148271.20;1652284;85;21573;-57
2022/06/15 09:16:17;;;;;;;2.42;0.80;;;;;;;24.58;32.77;148306.75;1677051;85;21029;-57
2022/06/15 09:18:55;;;;;;;3.27;1.30;;;;;;;24.81;32.87;148363.77;1646103;85;20982;-56
2022/06/15 09:21:27;;;;;;;2.58;1.10;;;;;;;24.93;32.98;148391.64;1677318;85;21084;-59
2022/06/15 09:24:08;;;;;;;2.65;1.25;;;;;;;24.33;33.64;148243.34;1656027;83;21502;-57
2022/06/15 09:26:55;;;;;;;3.30;0.80;;;;;;;23.94;34.50;148148.34;1618875;86;21043;-57
2022/06/15 09:29:37;;;;;;;3.15;1.20;;;;;;;23.86;34.67;148126.78;1661022;85;21021;-57
2022/06/15 09:32:31;;;;;;;2.83;0.75;;;;;;;23.81;34.66;148115.37;1676152;85;20990;-57
2022/06/15 09:35:16;;;;;;;3.98;0.70;;;;;;;23.13;33.66;147948.20;1667747;85;21618;-62
2022/06/15 09:37:48;;;;;;;3.27;1.07;;;;;;;22.31;35.23;147744.36;1663023;85;21501;-57
2022/06/15 09:40:17;;;;;;;2.62;0.90;;;;;;;22.28;35.65;147736.78;1663342;85;21029;-57
2022/06/15 09:43:13;;;;;;;1.77;0.72;;;;;;;22.47;35.63;147784.88;1664799;85;21020;-57
2022/06/15 09:45:49;;;;;;;2.40;0.80;;;;;;;22.39;35.20;147764.64;1645681;86;21530;-57
2022/06/15 09:48:30;;;;;;;2.30;0.98;;;;;;;22.14;35.48;147701.34;1645761;86;21087;-56
2022/06/15 09:51:15;;;;;;;3.67;1.22;;;;;;;22.04;36.07;147677.30;1678147;84;21056;-56
2022/06/15 09:54:23;;;;;;;3.45;1.00;;;;;;;21.93;36.40;147649.44;1678584;85;21530;-55
2022/06/15 09:56:52;;;;;;;6.17;1.52;;;;;;;21.94;36.26;147652.00;1677722;85;21088;-61
2022/06/15 09:59:22;;;;;;;3.15;1.00;;;;;;;21.96;36.58;147657.06;1678419;85;21088;-56
2022/06/15 10:01:49;;;;;;;4.17;1.10;;;;;;;21.91;36.51;147644.41;1627096;86;21112;-57
2022/06/15 10:04:21;;;;;;;3.30;1.05;;;;;;;21.57;36.39;147560.91;1648117;86;21045;-57
2022/06/15 10:07:11;;;;;;;2.35;0.90;;;;;;;21.34;36.42;147505.22;1647808;86;21061;-57
2022/06/15 10:09:43;;;;;;;3.47;0.90;;;;;;;21.43;36.27;147528.05;1678527;85;21096;-57
2022/06/15 10:15:44;;;;;;;2.27;1.00;;;;;;;21.44;36.43;147529.30;1678676;85;21507;-56
2022/06/15 10:18:22;;;;;;;2.45;1.07;;;;;;;21.38;36.89;147515.41;1657743;85;21032;-57
2022/06/15 10:21:15;;;;;;;3.98;1.25;;;;;;;21.34;37.54;147505.22;1688519;85;21131;-57
2022/06/15 10:24:08;;;;;;;1.60;0.90;;;;;;;21.35;36.97;147507.78;1647807;86;21056;-57
2022/06/15 10:26:49;;;;;;;2.15;1.12;;;;;;;21.39;36.67;147517.91;1678640;85;21134;-56
2022/06/15 10:29:22;;;;;;;2.83;1.07;;;;;;;21.43;37.34;147528.05;1678807;85;21507;-57
2022/06/15 10:32:07;;;;;;;2.83;0.98;;;;;;;21.43;37.34;147528.05;1678083;85;21402;-57
2022/06/15 10:34:50;;;;;;;3.17;1.02;;;;;;;21.62;37.45;147574.81;1684273;85;21060;-57
2022/06/15 10:37:37;;;;;;;2.70;0.90;;;;;;;21.75;37.17;147606.44;1689143;85;21538;-57
2022/06/15 10:40:27;;;;;;;1.92;0.78;;;;;;;21.76;36.71;147608.98;1684555;85;21561;-57
2022/06/15 10:43:16;;;;;;;3.12;1.27;;;;;;;21.70;36.55;147593.78;1651742;86;21081;-57
